sensor_id;sensor_type;location;lat;lon;timestamp;temperature;humidity
19415;DHT22;9843;48.882;12.592;2022-08-19T00:01:56;20.50;99.90
19415;DHT22;9843;48.882;12.592;2022-08-19T00:04:30;20.50;99.90
19415;DHT22;9843;48.882;12.592;2022-08-19T00:06:59;20.50;99.90
19415;DHT22;9843;48.882;12.592;2022-08-19T00:09:26;20.60;99.90
19415;DHT22;9843;48.882;12.592;2022-08-19T00:11:54;20.60;99.90
19415;DHT22;9843;48.882;12.592;2022-08-19T00:14:22;20.70;99.90
19415;DHT22;9843;48.882;12.592;2022-08-19T00:16:51;20.70;99.90
19415;DHT22;9843;48.882;12.592;2022-08-19T00:19:20;20.80;99.90
19415;DHT22;9843;48.882;12.592;2022-08-19T00:21:47;20.70;99.90
19415;DHT22;9843;48.882;12.592;2022-08-19T00:24:15;20.70;99.90
19415;DHT22;9843;48.882;12.592;2022-08-19T00:26:42;20.70;99.90
19415;DHT22;9843;48.882;12.592;2022-08-19T00:29:12;20.80;99.90
19415;DHT22;9843;48.882;12.592;2022-08-19T00:31:40;20.80;99.90
19415;DHT22;9843;48.882;12.592;2022-08-19T00:34:09;20.80;99.90
19415;DHT22;9843;48.882;12.592;2022-08-19T00:36:37;20.80;99.90
19415;DHT22;9843;48.882;12.592;2022-08-19T00:39:05;20.90;99.90
19415;DHT22;9843;48.882;12.592;2022-08-19T00:41:31;20.90;99.90
19415;DHT22;9843;48.882;12.592;2022-08-19T00:44:01;20.90;99.90
19415;DHT22;9843;48.882;12.592;2022-08-19T00:46:29;20.90;99.90
19415;DHT22;9843;48.882;12.592;2022-08-19T00:48:56;20.90;99.90
19415;DHT22;9843;48.882;12.592;2022-08-19T00:51:26;20.90;99.90
19415;DHT22;9843;48.882;12.592;2022-08-19T00:53:55;20.90;99.90
19415;DHT22;9843;48.882;12.592;2022-08-19T00:56:23;21.00;99.90
19415;DHT22;9843;48.882;12.592;2022-08-19T00:58:55;21.00;99.90
19415;DHT22;9843;48.882;12.592;2022-08-19T01:01:23;21.00;99.90
19415;DHT22;9843;48.882;12.592;2022-08-19T01:03:50;21.00;99.90
19415;DHT22;9843;48.882;12.592;2022-08-19T01:06:17;21.10;99.90
19415;DHT22;9843;48.882;12.592;2022-08-19T01:08:45;21.10;99.90
19415;DHT22;9843;48.882;12.592;2022-08-19T01:11:12;21.10;99.90
19415;DHT22;9843;48.882;12.592;2022-08-19T01:13:39;21.00;99.90
19415;DHT22;9843;48.882;12.592;2022-08-19T01:16:09;21.00;99.90
19415;DHT22;9843;48.882;12.592;2022-08-19T01:18:41;21.00;99.90
19415;DHT22;9843;48.882;12.592;2022-08-19T01:21:12;21.00;99.90
19415;DHT22;9843;48.882;12.592;2022-08-19T01:23:43;21.00;99.90
19415;DHT22;9843;48.882;12.592;2022-08-19T01:26:11;21.00;99.90
19415;DHT22;9843;48.882;12.592;2022-08-19T01:28:40;21.00;99.90
19415;DHT22;9843;48.882;12.592;2022-08-19T01:31:11;21.00;99.90
19415;DHT22;9843;48.882;12.592;2022-08-19T01:33:39;21.00;99.90
19415;DHT22;9843;48.882;12.592;2022-08-19T01:36:08;21.10;99.90
19415;DHT22;9843;48.882;12.592;2022-08-19T01:38:38;21.10;99.90
19415;DHT22;9843;48.882;12.592;2022-08-19T01:41:06;21.10;99.90
19415;DHT22;9843;48.882;12.592;2022-08-19T01:43:33;21.10;99.90
19415;DHT22;9843;48.882;12.592;2022-08-19T01:46:00;21.10;99.90
19415;DHT22;9843;48.882;12.592;2022-08-19T01:48:33;21.10;99.90
19415;DHT22;9843;48.882;12.592;2022-08-19T01:51:00;21.10;99.90
19415;DHT22;9843;48.882;12.592;2022-08-19T01:53:27;21.10;99.90
19415;DHT22;9843;48.882;12.592;2022-08-19T01:55:54;21.20;99.90
19415;DHT22;9843;48.882;12.592;2022-08-19T01:58:26;21.20;99.90
19415;DHT22;9843;48.882;12.592;2022-08-19T02:00:54;21.20;99.90
19415;DHT22;9843;48.882;12.592;2022-08-19T02:03:21;21.10;99.90
19415;DHT22;9843;48.882;12.592;2022-08-19T02:05:54;21.10;99.90
19415;DHT22;9843;48.882;12.592;2022-08-19T02:08:21;21.20;99.90
19415;DHT22;9843;48.882;12.592;2022-08-19T02:10:47;21.10;99.90
19415;DHT22;9843;48.882;12.592;2022-08-19T02:13:15;21.10;99.90
19415;DHT22;9843;48.882;12.592;2022-08-19T02:15:43;21.10;99.90
19415;DHT22;9843;48.882;12.592;2022-08-19T02:18:10;21.10;99.90
19415;DHT22;9843;48.882;12.592;2022-08-19T02:20:38;21.10;99.90
19415;DHT22;9843;48.882;12.592;2022-08-19T02:23:06;21.10;99.90
19415;DHT22;9843;48.882;12.592;2022-08-19T02:25:33;21.10;99.90
19415;DHT22;9843;48.882;12.592;2022-08-19T02:28:00;21.10;99.90
19415;DHT22;9843;48.882;12.592;2022-08-19T02:30:28;21.10;99.90
19415;DHT22;9843;48.882;12.592;2022-08-19T02:32:56;21.10;99.90
19415;DHT22;9843;48.882;12.592;2022-08-19T02:35:23;21.10;99.90
19415;DHT22;9843;48.882;12.592;2022-08-19T02:37:50;21.10;99.90
19415;DHT22;9843;48.882;12.592;2022-08-19T02:40:34;21.10;99.90
19415;DHT22;9843;48.882;12.592;2022-08-19T02:43:01;21.10;99.90
19415;DHT22;9843;48.882;12.592;2022-08-19T02:45:32;21.00;99.90
19415;DHT22;9843;48.882;12.592;2022-08-19T02:48:00;21.00;99.90
19415;DHT22;9843;48.882;12.592;2022-08-19T02:50:26;21.00;99.90
19415;DHT22;9843;48.882;12.592;2022-08-19T02:52:53;20.90;99.90
19415;DHT22;9843;48.882;12.592;2022-08-19T02:55:20;20.90;99.90
19415;DHT22;9843;48.882;12.592;2022-08-19T02:57:47;20.90;99.90
19415;DHT22;9843;48.882;12.592;2022-08-19T03:00:14;20.90;99.90
19415;DHT22;9843;48.882;12.592;2022-08-19T03:02:41;20.90;99.90
19415;DHT22;9843;48.882;12.592;2022-08-19T03:05:10;20.90;99.90
19415;DHT22;9843;48.882;12.592;2022-08-19T03:07:37;20.90;99.90
19415;DHT22;9843;48.882;12.592;2022-08-19T03:10:05;20.90;99.90
19415;DHT22;9843;48.882;12.592;2022-08-19T03:12:35;20.90;99.90
19415;DHT22;9843;48.882;12.592;2022-08-19T03:15:03;20.90;99.90
19415;DHT22;9843;48.882;12.592;2022-08-19T03:17:31;21.00;99.90
19415;DHT22;9843;48.882;12.592;2022-08-19T03:19:57;20.90;99.90
19415;DHT22;9843;48.882;12.592;2022-08-19T03:22:26;20.90;99.90
19415;DHT22;9843;48.882;12.592;2022-08-19T03:24:53;20.90;99.90
19415;DHT22;9843;48.882;12.592;2022-08-19T03:27:19;20.80;99.90
19415;DHT22;9843;48.882;12.592;2022-08-19T03:29:46;20.80;99.90
19415;DHT22;9843;48.882;12.592;2022-08-19T03:32:13;20.80;99.90
19415;DHT22;9843;48.882;12.592;2022-08-19T03:34:40;20.90;99.90
19415;DHT22;9843;48.882;12.592;2022-08-19T03:37:08;20.90;99.90
19415;DHT22;9843;48.882;12.592;2022-08-19T03:39:38;20.90;99.90
19415;DHT22;9843;48.882;12.592;2022-08-19T03:42:05;20.90;99.90
19415;DHT22;9843;48.882;12.592;2022-08-19T03:44:31;20.90;99.90
19415;DHT22;9843;48.882;12.592;2022-08-19T03:46:59;20.90;99.90
19415;DHT22;9843;48.882;12.592;2022-08-19T03:49:28;20.90;99.90
19415;DHT22;9843;48.882;12.592;2022-08-19T03:51:56;20.90;99.90
19415;DHT22;9843;48.882;12.592;2022-08-19T03:54:24;20.90;99.90
19415;DHT22;9843;48.882;12.592;2022-08-19T03:56:54;20.80;99.90
19415;DHT22;9843;48.882;12.592;2022-08-19T03:59:24;20.90;99.90
19415;DHT22;9843;48.882;12.592;2022-08-19T04:01:51;20.80;99.90
19415;DHT22;9843;48.882;12.592;2022-08-19T04:04:18;20.80;99.90
19415;DHT22;9843;48.882;12.592;2022-08-19T04:06:44;20.80;99.90
19415;DHT22;9843;48.882;12.592;2022-08-19T04:09:12;20.80;99.90
19415;DHT22;9843;48.882;12.592;2022-08-19T04:11:41;20.90;99.90
19415;DHT22;9843;48.882;12.592;2022-08-19T04:14:11;20.90;99.90
19415;DHT22;9843;48.882;12.592;2022-08-19T04:16:38;20.90;99.90
19415;DHT22;9843;48.882;12.592;2022-08-19T04:19:05;20.80;99.90
19415;DHT22;9843;48.882;12.592;2022-08-19T04:21:33;20.90;99.90
19415;DHT22;9843;48.882;12.592;2022-08-19T04:24:00;20.90;99.90
19415;DHT22;9843;48.882;12.592;2022-08-19T04:26:29;20.80;99.90
19415;DHT22;9843;48.882;12.592;2022-08-19T04:28:58;20.90;99.90
19415;DHT22;9843;48.882;12.592;2022-08-19T04:31:28;20.90;99.90
19415;DHT22;9843;48.882;12.592;2022-08-19T04:33:55;20.80;99.90
19415;DHT22;9843;48.882;12.592;2022-08-19T04:36:25;20.90;99.90
19415;DHT22;9843;48.882;12.592;2022-08-19T04:38:54;20.90;99.90
19415;DHT22;9843;48.882;12.592;2022-08-19T04:41:22;20.90;99.90
19415;DHT22;9843;48.882;12.592;2022-08-19T04:44:06;20.90;99.90
19415;DHT22;9843;48.882;12.592;2022-08-19T04:46:35;20.90;99.90
19415;DHT22;9843;48.882;12.592;2022-08-19T04:49:03;20.90;99.90
19415;DHT22;9843;48.882;12.592;2022-08-19T04:51:32;20.90;99.90
19415;DHT22;9843;48.882;12.592;2022-08-19T04:54:01;20.90;99.90
19415;DHT22;9843;48.882;12.592;2022-08-19T04:56:27;20.90;99.90
19415;DHT22;9843;48.882;12.592;2022-08-19T04:58:56;20.90;99.90
19415;DHT22;9843;48.882;12.592;2022-08-19T05:01:25;21.00;99.90
19415;DHT22;9843;48.882;12.592;2022-08-19T05:03:53;21.00;99.90
19415;DHT22;9843;48.882;12.592;2022-08-19T05:06:21;21.00;99.90
19415;DHT22;9843;48.882;12.592;2022-08-19T05:08:48;21.10;99.90
19415;DHT22;9843;48.882;12.592;2022-08-19T05:11:17;21.10;99.90
19415;DHT22;9843;48.882;12.592;2022-08-19T05:13:46;21.20;99.90
19415;DHT22;9843;48.882;12.592;2022-08-19T05:16:15;21.30;99.90
19415;DHT22;9843;48.882;12.592;2022-08-19T05:18:43;21.40;99.90
19415;DHT22;9843;48.882;12.592;2022-08-19T05:21:29;21.40;99.90
19415;DHT22;9843;48.882;12.592;2022-08-19T05:24:14;21.50;99.90
19415;DHT22;9843;48.882;12.592;2022-08-19T05:26:43;21.50;99.90
19415;DHT22;9843;48.882;12.592;2022-08-19T05:29:12;21.50;99.90
19415;DHT22;9843;48.882;12.592;2022-08-19T05:31:39;21.50;99.90
19415;DHT22;9843;48.882;12.592;2022-08-19T05:34:07;21.50;99.90
19415;DHT22;9843;48.882;12.592;2022-08-19T05:36:38;21.50;99.90
19415;DHT22;9843;48.882;12.592;2022-08-19T05:39:06;21.50;99.90
19415;DHT22;9843;48.882;12.592;2022-08-19T05:41:33;21.50;99.90
19415;DHT22;9843;48.882;12.592;2022-08-19T05:44:02;21.40;99.90
19415;DHT22;9843;48.882;12.592;2022-08-19T05:46:31;21.40;99.90
19415;DHT22;9843;48.882;12.592;2022-08-19T05:48:58;21.40;99.90
19415;DHT22;9843;48.882;12.592;2022-08-19T05:51:25;21.40;99.90
19415;DHT22;9843;48.882;12.592;2022-08-19T05:53:53;21.40;99.90
19415;DHT22;9843;48.882;12.592;2022-08-19T05:56:20;21.40;99.90
19415;DHT22;9843;48.882;12.592;2022-08-19T05:58:47;21.40;99.90
19415;DHT22;9843;48.882;12.592;2022-08-19T06:01:16;21.40;99.90
19415;DHT22;9843;48.882;12.592;2022-08-19T06:03:43;21.40;99.90
19415;DHT22;9843;48.882;12.592;2022-08-19T06:06:13;21.40;99.90
19415;DHT22;9843;48.882;12.592;2022-08-19T06:08:40;21.40;99.90
19415;DHT22;9843;48.882;12.592;2022-08-19T06:11:18;21.30;99.90
19415;DHT22;9843;48.882;12.592;2022-08-19T06:13:47;21.20;99.90
19415;DHT22;9843;48.882;12.592;2022-08-19T06:16:16;21.20;99.90
19415;DHT22;9843;48.882;12.592;2022-08-19T06:18:54;21.20;99.90
19415;DHT22;9843;48.882;12.592;2022-08-19T06:21:25;21.20;99.90
19415;DHT22;9843;48.882;12.592;2022-08-19T06:23:53;21.20;99.90
19415;DHT22;9843;48.882;12.592;2022-08-19T06:26:21;21.20;99.90
19415;DHT22;9843;48.882;12.592;2022-08-19T06:28:49;21.20;99.90
19415;DHT22;9843;48.882;12.592;2022-08-19T06:31:18;21.20;99.90
19415;DHT22;9843;48.882;12.592;2022-08-19T06:33:47;21.20;99.90
19415;DHT22;9843;48.882;12.592;2022-08-19T06:36:19;21.20;99.90
19415;DHT22;9843;48.882;12.592;2022-08-19T06:38:46;21.20;99.90
19415;DHT22;9843;48.882;12.592;2022-08-19T06:41:13;21.30;99.90
19415;DHT22;9843;48.882;12.592;2022-08-19T06:43:41;21.30;99.90
19415;DHT22;9843;48.882;12.592;2022-08-19T06:46:11;21.30;99.90
19415;DHT22;9843;48.882;12.592;2022-08-19T06:48:38;21.40;99.90
19415;DHT22;9843;48.882;12.592;2022-08-19T06:51:05;21.40;99.90
19415;DHT22;9843;48.882;12.592;2022-08-19T06:53:32;21.50;99.90
19415;DHT22;9843;48.882;12.592;2022-08-19T06:55:59;21.60;99.90
19415;DHT22;9843;48.882;12.592;2022-08-19T06:58:28;21.60;99.90
19415;DHT22;9843;48.882;12.592;2022-08-19T07:00:59;21.60;99.90
19415;DHT22;9843;48.882;12.592;2022-08-19T07:03:27;21.60;99.90
19415;DHT22;9843;48.882;12.592;2022-08-19T07:05:54;21.60;99.90
19415;DHT22;9843;48.882;12.592;2022-08-19T07:08:21;21.60;99.90
19415;DHT22;9843;48.882;12.592;2022-08-19T07:10:49;21.60;99.90
19415;DHT22;9843;48.882;12.592;2022-08-19T07:13:16;21.60;99.90
19415;DHT22;9843;48.882;12.592;2022-08-19T07:15:43;21.50;99.90
19415;DHT22;9843;48.882;12.592;2022-08-19T07:18:13;21.50;99.90
19415;DHT22;9843;48.882;12.592;2022-08-19T07:20:40;21.50;99.90
19415;DHT22;9843;48.882;12.592;2022-08-19T07:23:08;21.50;99.90
19415;DHT22;9843;48.882;12.592;2022-08-19T07:25:36;21.50;99.90
19415;DHT22;9843;48.882;12.592;2022-08-19T07:28:03;21.50;99.90
19415;DHT22;9843;48.882;12.592;2022-08-19T07:30:30;21.60;99.90
19415;DHT22;9843;48.882;12.592;2022-08-19T07:32:57;21.70;99.90
19415;DHT22;9843;48.882;12.592;2022-08-19T07:35:25;21.70;99.90
19415;DHT22;9843;48.882;12.592;2022-08-19T07:37:53;21.70;99.90
19415;DHT22;9843;48.882;12.592;2022-08-19T07:40:20;21.70;99.90
19415;DHT22;9843;48.882;12.592;2022-08-19T07:42:47;21.70;99.90
19415;DHT22;9843;48.882;12.592;2022-08-19T07:45:14;21.70;99.90
19415;DHT22;9843;48.882;12.592;2022-08-19T07:47:41;21.70;99.90
19415;DHT22;9843;48.882;12.592;2022-08-19T07:50:10;21.70;99.90
19415;DHT22;9843;48.882;12.592;2022-08-19T07:52:39;21.70;99.90
19415;DHT22;9843;48.882;12.592;2022-08-19T07:55:09;21.70;99.90
19415;DHT22;9843;48.882;12.592;2022-08-19T07:57:36;21.70;99.90
19415;DHT22;9843;48.882;12.592;2022-08-19T08:00:05;21.70;99.90
19415;DHT22;9843;48.882;12.592;2022-08-19T08:02:32;21.70;99.90
19415;DHT22;9843;48.882;12.592;2022-08-19T08:04:59;21.70;99.90
19415;DHT22;9843;48.882;12.592;2022-08-19T08:07:44;21.70;99.90
19415;DHT22;9843;48.882;12.592;2022-08-19T08:10:28;21.80;99.90
19415;DHT22;9843;48.882;12.592;2022-08-19T08:12:55;21.80;99.90
19415;DHT22;9843;48.882;12.592;2022-08-19T08:15:22;21.90;99.90
19415;DHT22;9843;48.882;12.592;2022-08-19T08:17:49;21.90;99.90
19415;DHT22;9843;48.882;12.592;2022-08-19T08:20:16;22.00;99.90
19415;DHT22;9843;48.882;12.592;2022-08-19T08:22:45;22.00;99.90
19415;DHT22;9843;48.882;12.592;2022-08-19T08:25:29;22.10;99.90
19415;DHT22;9843;48.882;12.592;2022-08-19T08:27:56;22.20;99.90
19415;DHT22;9843;48.882;12.592;2022-08-19T08:30:26;22.30;99.90
19415;DHT22;9843;48.882;12.592;2022-08-19T08:32:53;22.30;99.90
19415;DHT22;9843;48.882;12.592;2022-08-19T08:35:22;22.40;99.90
19415;DHT22;9843;48.882;12.592;2022-08-19T08:37:53;22.50;99.90
19415;DHT22;9843;48.882;12.592;2022-08-19T08:40:23;22.60;99.90
19415;DHT22;9843;48.882;12.592;2022-08-19T08:42:57;22.80;99.90
19415;DHT22;9843;48.882;12.592;2022-08-19T08:45:28;23.10;99.90
19415;DHT22;9843;48.882;12.592;2022-08-19T08:47:57;23.30;99.90
19415;DHT22;9843;48.882;12.592;2022-08-19T08:50:32;23.70;99.90
19415;DHT22;9843;48.882;12.592;2022-08-19T08:53:04;24.00;99.90
19415;DHT22;9843;48.882;12.592;2022-08-19T08:55:32;24.40;99.90
19415;DHT22;9843;48.882;12.592;2022-08-19T08:58:03;24.50;99.90
19415;DHT22;9843;48.882;12.592;2022-08-19T09:00:33;24.70;99.90
19415;DHT22;9843;48.882;12.592;2022-08-19T09:03:01;24.90;99.90
19415;DHT22;9843;48.882;12.592;2022-08-19T09:05:37;25.20;99.90
19415;DHT22;9843;48.882;12.592;2022-08-19T09:08:13;25.30;99.90
19415;DHT22;9843;48.882;12.592;2022-08-19T09:10:46;25.20;99.90
19415;DHT22;9843;48.882;12.592;2022-08-19T09:13:20;24.90;99.90
19415;DHT22;9843;48.882;12.592;2022-08-19T09:15:54;24.80;99.90
19415;DHT22;9843;48.882;12.592;2022-08-19T09:18:23;24.60;99.90
19415;DHT22;9843;48.882;12.592;2022-08-19T09:20:50;24.40;99.90
19415;DHT22;9843;48.882;12.592;2022-08-19T09:23:19;24.30;99.90
19415;DHT22;9843;48.882;12.592;2022-08-19T09:25:47;24.10;99.90
19415;DHT22;9843;48.882;12.592;2022-08-19T09:28:14;24.00;99.90
19415;DHT22;9843;48.882;12.592;2022-08-19T09:30:41;23.90;99.90
19415;DHT22;9843;48.882;12.592;2022-08-19T09:33:08;23.90;99.90
19415;DHT22;9843;48.882;12.592;2022-08-19T09:35:35;23.90;99.90
19415;DHT22;9843;48.882;12.592;2022-08-19T09:38:02;23.90;99.90
19415;DHT22;9843;48.882;12.592;2022-08-19T09:40:30;23.80;99.90
19415;DHT22;9843;48.882;12.592;2022-08-19T09:42:57;23.80;99.90
19415;DHT22;9843;48.882;12.592;2022-08-19T09:45:26;23.80;99.90
19415;DHT22;9843;48.882;12.592;2022-08-19T09:47:52;23.50;99.90
19415;DHT22;9843;48.882;12.592;2022-08-19T09:50:20;23.30;99.90
19415;DHT22;9843;48.882;12.592;2022-08-19T09:52:48;23.20;99.90
19415;DHT22;9843;48.882;12.592;2022-08-19T09:55:14;23.20;99.90
19415;DHT22;9843;48.882;12.592;2022-08-19T09:57:44;23.10;99.90
19415;DHT22;9843;48.882;12.592;2022-08-19T10:00:11;23.00;99.90
19415;DHT22;9843;48.882;12.592;2022-08-19T10:02:38;23.10;99.90
19415;DHT22;9843;48.882;12.592;2022-08-19T10:05:05;23.00;99.90
19415;DHT22;9843;48.882;12.592;2022-08-19T10:07:50;23.20;99.90
19415;DHT22;9843;48.882;12.592;2022-08-19T10:10:17;23.30;99.90
19415;DHT22;9843;48.882;12.592;2022-08-19T10:12:45;23.20;99.90
19415;DHT22;9843;48.882;12.592;2022-08-19T10:15:13;23.20;99.90
19415;DHT22;9843;48.882;12.592;2022-08-19T10:17:40;23.30;99.90
19415;DHT22;9843;48.882;12.592;2022-08-19T10:20:07;23.30;99.90
19415;DHT22;9843;48.882;12.592;2022-08-19T10:22:34;23.40;99.90
19415;DHT22;9843;48.882;12.592;2022-08-19T10:25:04;23.40;99.90
19415;DHT22;9843;48.882;12.592;2022-08-19T10:27:31;23.50;99.90
19415;DHT22;9843;48.882;12.592;2022-08-19T10:29:59;23.70;99.90
19415;DHT22;9843;48.882;12.592;2022-08-19T10:32:26;23.80;99.90
19415;DHT22;9843;48.882;12.592;2022-08-19T10:34:54;23.70;99.90
19415;DHT22;9843;48.882;12.592;2022-08-19T10:37:21;23.80;99.90
19415;DHT22;9843;48.882;12.592;2022-08-19T10:39:48;23.70;99.90
19415;DHT22;9843;48.882;12.592;2022-08-19T10:42:15;23.90;99.90
19415;DHT22;9843;48.882;12.592;2022-08-19T10:44:44;24.20;99.90
19415;DHT22;9843;48.882;12.592;2022-08-19T10:47:13;24.40;99.90
19415;DHT22;9843;48.882;12.592;2022-08-19T10:49:40;24.70;99.90
19415;DHT22;9843;48.882;12.592;2022-08-19T10:52:21;25.10;99.90
19415;DHT22;9843;48.882;12.592;2022-08-19T10:54:59;25.40;99.90
19415;DHT22;9843;48.882;12.592;2022-08-19T10:57:43;25.50;99.90
19415;DHT22;9843;48.882;12.592;2022-08-19T11:00:11;25.80;99.90
19415;DHT22;9843;48.882;12.592;2022-08-19T11:02:40;26.00;99.90
19415;DHT22;9843;48.882;12.592;2022-08-19T11:05:08;25.90;99.90
19415;DHT22;9843;48.882;12.592;2022-08-19T11:07:36;26.00;99.90
19415;DHT22;9843;48.882;12.592;2022-08-19T11:10:04;26.00;99.90
19415;DHT22;9843;48.882;12.592;2022-08-19T11:12:31;26.20;99.90
19415;DHT22;9843;48.882;12.592;2022-08-19T11:14:58;26.50;99.90
19415;DHT22;9843;48.882;12.592;2022-08-19T11:17:25;27.00;99.90
19415;DHT22;9843;48.882;12.592;2022-08-19T11:19:53;27.20;99.90
19415;DHT22;9843;48.882;12.592;2022-08-19T11:22:20;27.80;99.90
19415;DHT22;9843;48.882;12.592;2022-08-19T11:24:46;28.30;99.90
19415;DHT22;9843;48.882;12.592;2022-08-19T11:27:13;28.60;99.90
19415;DHT22;9843;48.882;12.592;2022-08-19T11:29:40;29.00;99.90
19415;DHT22;9843;48.882;12.592;2022-08-19T11:32:09;30.30;99.90
19415;DHT22;9843;48.882;12.592;2022-08-19T11:34:36;31.50;99.90
19415;DHT22;9843;48.882;12.592;2022-08-19T11:37:05;33.30;99.90
19415;DHT22;9843;48.882;12.592;2022-08-19T11:39:35;34.50;96.60
19415;DHT22;9843;48.882;12.592;2022-08-19T11:42:03;34.80;93.60
19415;DHT22;9843;48.882;12.592;2022-08-19T11:44:51;34.60;91.30
19415;DHT22;9843;48.882;12.592;2022-08-19T11:47:18;33.00;91.10
19415;DHT22;9843;48.882;12.592;2022-08-19T11:49:45;31.40;93.40
19415;DHT22;9843;48.882;12.592;2022-08-19T11:52:14;30.60;95.40
19415;DHT22;9843;48.882;12.592;2022-08-19T11:54:40;29.80;96.50
19415;DHT22;9843;48.882;12.592;2022-08-19T11:57:07;29.20;98.50
19415;DHT22;9843;48.882;12.592;2022-08-19T11:59:34;28.60;99.70
19415;DHT22;9843;48.882;12.592;2022-08-19T12:02:01;28.30;99.90
19415;DHT22;9843;48.882;12.592;2022-08-19T12:04:27;28.10;99.90
19415;DHT22;9843;48.882;12.592;2022-08-19T12:06:54;27.90;99.90
19415;DHT22;9843;48.882;12.592;2022-08-19T12:09:22;28.10;99.90
19415;DHT22;9843;48.882;12.592;2022-08-19T12:11:49;28.30;99.90
19415;DHT22;9843;48.882;12.592;2022-08-19T12:14:17;28.70;99.90
19415;DHT22;9843;48.882;12.592;2022-08-19T12:16:44;29.70;99.90
19415;DHT22;9843;48.882;12.592;2022-08-19T12:19:12;30.40;99.10
19415;DHT22;9843;48.882;12.592;2022-08-19T12:21:38;30.50;98.40
19415;DHT22;9843;48.882;12.592;2022-08-19T12:24:06;30.80;98.20
19415;DHT22;9843;48.882;12.592;2022-08-19T12:26:34;31.10;97.50
19415;DHT22;9843;48.882;12.592;2022-08-19T12:29:02;31.50;97.10
19415;DHT22;9843;48.882;12.592;2022-08-19T12:31:29;32.20;95.70
19415;DHT22;9843;48.882;12.592;2022-08-19T12:33:56;32.40;95.00
19415;DHT22;9843;48.882;12.592;2022-08-19T12:36:24;32.10;94.40
19415;DHT22;9843;48.882;12.592;2022-08-19T12:38:51;31.40;95.00
19415;DHT22;9843;48.882;12.592;2022-08-19T12:41:19;31.00;96.40
19415;DHT22;9843;48.882;12.592;2022-08-19T12:43:49;30.60;96.10
19415;DHT22;9843;48.882;12.592;2022-08-19T12:46:16;30.10;96.50
19415;DHT22;9843;48.882;12.592;2022-08-19T12:48:43;29.70;97.40
19415;DHT22;9843;48.882;12.592;2022-08-19T12:51:13;29.70;98.40
19415;DHT22;9843;48.882;12.592;2022-08-19T12:53:40;30.20;97.60
19415;DHT22;9843;48.882;12.592;2022-08-19T12:56:08;30.80;98.00
19415;DHT22;9843;48.882;12.592;2022-08-19T12:58:36;31.30;95.90
19415;DHT22;9843;48.882;12.592;2022-08-19T13:01:08;31.40;95.70
19415;DHT22;9843;48.882;12.592;2022-08-19T13:03:36;31.00;96.00
19415;DHT22;9843;48.882;12.592;2022-08-19T13:06:03;30.30;96.40
19415;DHT22;9843;48.882;12.592;2022-08-19T13:08:29;29.80;98.00
19415;DHT22;9843;48.882;12.592;2022-08-19T13:10:56;29.50;98.70
19415;DHT22;9843;48.882;12.592;2022-08-19T13:13:23;29.20;99.30
19415;DHT22;9843;48.882;12.592;2022-08-19T13:15:51;28.80;99.70
19415;DHT22;9843;48.882;12.592;2022-08-19T13:18:19;28.60;99.90
19415;DHT22;9843;48.882;12.592;2022-08-19T13:20:46;28.50;99.90
19415;DHT22;9843;48.882;12.592;2022-08-19T13:23:13;28.70;99.90
19415;DHT22;9843;48.882;12.592;2022-08-19T13:25:40;29.40;99.90
19415;DHT22;9843;48.882;12.592;2022-08-19T13:28:06;29.80;99.90
19415;DHT22;9843;48.882;12.592;2022-08-19T13:30:33;30.20;98.30
19415;DHT22;9843;48.882;12.592;2022-08-19T13:33:17;30.20;98.10
19415;DHT22;9843;48.882;12.592;2022-08-19T13:35:48;30.10;98.60
19415;DHT22;9843;48.882;12.592;2022-08-19T13:38:17;29.90;98.20
19415;DHT22;9843;48.882;12.592;2022-08-19T13:40:44;29.60;98.30
19415;DHT22;9843;48.882;12.592;2022-08-19T13:43:11;29.40;98.70
19415;DHT22;9843;48.882;12.592;2022-08-19T13:45:39;29.00;98.70
19415;DHT22;9843;48.882;12.592;2022-08-19T13:48:07;28.50;99.70
19415;DHT22;9843;48.882;12.592;2022-08-19T13:50:38;28.30;99.90
19415;DHT22;9843;48.882;12.592;2022-08-19T13:53:08;28.20;99.90
19415;DHT22;9843;48.882;12.592;2022-08-19T13:55:37;28.20;99.90
19415;DHT22;9843;48.882;12.592;2022-08-19T13:58:04;28.20;99.90
19415;DHT22;9843;48.882;12.592;2022-08-19T14:00:33;28.20;99.90
19415;DHT22;9843;48.882;12.592;2022-08-19T14:03:00;28.30;99.90
19415;DHT22;9843;48.882;12.592;2022-08-19T14:05:29;28.30;99.90
19415;DHT22;9843;48.882;12.592;2022-08-19T14:07:56;28.50;99.90
19415;DHT22;9843;48.882;12.592;2022-08-19T14:10:26;28.80;99.90
19415;DHT22;9843;48.882;12.592;2022-08-19T14:12:54;29.50;99.90
19415;DHT22;9843;48.882;12.592;2022-08-19T14:15:24;30.40;99.50
19415;DHT22;9843;48.882;12.592;2022-08-19T14:17:51;31.00;98.40
19415;DHT22;9843;48.882;12.592;2022-08-19T14:20:19;30.90;97.30
19415;DHT22;9843;48.882;12.592;2022-08-19T14:22:47;30.50;97.70
19415;DHT22;9843;48.882;12.592;2022-08-19T14:25:16;30.30;98.10
19415;DHT22;9843;48.882;12.592;2022-08-19T14:27:44;30.00;98.40
19415;DHT22;9843;48.882;12.592;2022-08-19T14:30:14;30.00;98.70
19415;DHT22;9843;48.882;12.592;2022-08-19T14:32:41;29.50;98.40
19415;DHT22;9843;48.882;12.592;2022-08-19T14:35:10;28.90;99.60
19415;DHT22;9843;48.882;12.592;2022-08-19T14:37:38;28.50;99.90
19415;DHT22;9843;48.882;12.592;2022-08-19T14:40:06;27.90;99.90
19415;DHT22;9843;48.882;12.592;2022-08-19T14:42:33;27.50;99.90
19415;DHT22;9843;48.882;12.592;2022-08-19T14:45:02;27.10;99.90
19415;DHT22;9843;48.882;12.592;2022-08-19T14:47:30;26.90;99.90
19415;DHT22;9843;48.882;12.592;2022-08-19T14:49:57;26.80;99.90
19415;DHT22;9843;48.882;12.592;2022-08-19T14:52:24;26.70;99.90
19415;DHT22;9843;48.882;12.592;2022-08-19T14:54:51;26.50;99.90
19415;DHT22;9843;48.882;12.592;2022-08-19T14:57:18;26.50;99.90
19415;DHT22;9843;48.882;12.592;2022-08-19T14:59:45;26.60;99.90
19415;DHT22;9843;48.882;12.592;2022-08-19T15:02:13;26.50;99.90
19415;DHT22;9843;48.882;12.592;2022-08-19T15:04:40;26.40;99.90
19415;DHT22;9843;48.882;12.592;2022-08-19T15:07:07;26.40;99.90
19415;DHT22;9843;48.882;12.592;2022-08-19T15:09:34;26.50;99.90
19415;DHT22;9843;48.882;12.592;2022-08-19T15:12:02;26.50;99.90
19415;DHT22;9843;48.882;12.592;2022-08-19T15:14:30;26.60;99.90
19415;DHT22;9843;48.882;12.592;2022-08-19T15:17:00;26.40;99.90
19415;DHT22;9843;48.882;12.592;2022-08-19T15:19:28;26.30;99.90
19415;DHT22;9843;48.882;12.592;2022-08-19T15:21:56;26.20;99.90
19415;DHT22;9843;48.882;12.592;2022-08-19T15:24:29;26.20;99.90
19415;DHT22;9843;48.882;12.592;2022-08-19T15:26:56;26.00;99.90
19415;DHT22;9843;48.882;12.592;2022-08-19T15:29:23;26.00;99.90
19415;DHT22;9843;48.882;12.592;2022-08-19T15:31:50;26.00;99.90
19415;DHT22;9843;48.882;12.592;2022-08-19T15:34:20;26.10;99.90
19415;DHT22;9843;48.882;12.592;2022-08-19T15:36:48;26.10;99.90
19415;DHT22;9843;48.882;12.592;2022-08-19T15:39:15;26.00;99.90